Date,TemperatureHighF,TemperatureAvgF,TemperatureLowF,DewpointHighF,DewpointAvgF,DewpointLowF,HumidityHigh,HumidityAvg,HumidityLow,PressureMaxIn,PressureMinIn,WindSpeedMaxMPH,WindSpeedAvgMPH,GustSpeedMaxMPH,PrecipitationSumIn
2013-1-1,80.2,74.0,70.7,62.0,58.7,55.1,71,59,48,30.15,29.98,0,0,0,0.00
2013-1-2,81.3,73.8,68.5,67.7,64.5,59.6,82,73,58,30.03,29.95,0,0,0,0.00
2013-1-3,84.4,76.1,71.2,69.6,67.1,65.5,83,74,58,30.07,29.98,0,0,0,0.00
2013-1-4,82.6,75.7,70.7,71.5,68.5,64.9,85,79,66,30.15,30.03,0,0,0,0.00
2013-1-5,77.0,73.6,71.8,70.5,68.0,66.5,89,83,75,30.18,30.09,0,0,0,0.00
2013-1-6,84.0,76.5,71.4,72.0,69.9,66.3,90,80,65,30.12,30.01,0,0,0,0.00
2013-1-7,76.1,73.3,71.6,70.3,68.2,65.1,90,84,71,30.09,30.01,0,0,0,0.00
2013-1-8,84.0,77.0,73.2,72.8,71.1,69.1,90,83,68,30.15,30.01,0,0,0,0.00
2013-1-9,81.0,77.2,75.0,71.4,70.2,66.6,86,79,72,30.21,30.09,0,0,0,0.00
2013-1-10,82.0,76.9,74.3,69.0,65.6,60.9,80,69,52,30.24,30.12,0,0,0,0.00
2013-1-11,80.4,76.3,74.1,69.9,66.9,65.3,82,73,65,30.18,30.09,0,0,0,0.00
2013-1-12,80.1,75.9,73.8,68.8,66.0,62.1,80,72,64,30.12,30.03,0,0,0,0.00
2013-1-13,81.1,75.9,73.4,66.8,64.0,59.0,77,67,55,30.09,30.03,0,0,0,0.00
2013-1-14,82.9,76.3,72.9,65.4,62.3,59.8,73,62,48,30.18,30.07,0,0,0,0.00
2013-1-15,78.3,75.2,73.6,67.7,64.9,61.0,78,70,64,30.15,30.07,0,0,0,0.00
2013-1-16,82.8,76.3,72.5,69.5,66.7,60.6,85,73,60,30.15,30.01,0,0,0,0.00
2013-1-17,78.6,73.3,67.6,72.5,66.5,53.7,90,80,61,30.21,30.01,0,0,0,0.00
2013-1-18,72.3,68.2,62.4,58.6,51.4,45.1,66,55,46,30.45,30.21,0,0,0,0.00
2013-1-19,71.8,70.3,67.8,67.4,63.3,54.5,90,79,57,30.36,30.15,0,0,0,0.00
2013-1-20,81.0,73.1,67.8,69.8,66.4,64.5,90,80,60,30.33,30.07,0,0,0,0.00
2013-1-21,78.6,73.6,70.7,70.4,67.6,63.9,89,82,72,30.24,30.07,0,0,0,0.00
2013-1-22,75.9,71.6,67.8,64.6,58.1,50.8,82,64,49,30.45,30.18,0,0,0,0.00
2013-1-23,75.2,71.3,68.0,55.9,51.4,48.5,63,50,44,31.01,30.36,0,0,0,0.00
2013-1-24,78.8,70.7,65.5,55.2,52.3,48.6,67,53,42,31.01,31.01,0,0,0,0.00
2013-1-25,78.4,71.0,66.0,58.4,53.3,48.0,68,54,43,17.72,17.72,0,0,0,0.00
2013-1-26,79.5,71.7,65.8,60.6,57.2,51.4,72,61,44,17.72,17.72,0,0,0,0.00
2013-1-27,79.2,73.9,69.8,63.1,60.3,56.3,73,63,51,31.01,17.72,0,0,0,0.00
2013-1-28,81.3,75.6,72.5,65.9,62.6,60.5,75,64,51,31.01,31.01,0,0,0,0.00
2013-1-29,80.2,75.5,73.0,68.8,65.8,62.4,80,72,65,31.01,31.01,0,0,0,0.00
2013-1-30,81.7,75.8,72.5,67.9,65.0,62.2,81,70,56,31.01,31.01,0,0,0,0.00
2013-1-31,74.7,71.8,67.1,70.8,59.1,42.0,90,67,40,31.01,31.01,0,0,0,0.00
2013-2-1,76.1,69.3,62.2,52.3,46.6,38.9,50,44,40,31.01,31.01,0,0,0,0.00
2013-2-2,75.4,69.6,64.6,53.0,47.7,38.5,59,46,38,31.01,31.01,0,0,0,0.00
2013-2-3,78.4,70.1,64.2,54.2,49.3,41.8,70,49,35,31.01,31.01,0,0,0,0.00
2013-2-4,77.4,68.4,60.6,51.7,46.4,38.1,57,46,33,31.01,30.98,0,0,0,0.00
2013-2-5,79.0,70.9,63.0,61.6,56.9,50.0,75,62,46,31.01,30.92,0,0,0,0.00
2013-2-6,80.6,73.3,67.3,65.6,62.2,59.2,81,69,56,31.01,30.95,0,0,0,0.00
2013-2-7,82.8,75.8,72.0,65.2,63.3,60.8,75,66,52,31.01,30.80,0,0,0,0.00
2013-2-8,84.2,76.6,71.4,70.4,67.9,64.3,89,75,57,31.01,31.01,0,0,0,0.00
2013-2-9,80.4,74.0,70.2,66.3,62.0,57.0,80,66,59,31.01,31.01,0,0,0,0.00
2013-2-10,73.9,72.6,71.6,64.3,60.4,55.4,76,66,56,31.01,31.01,0,0,0,0.00
2013-2-11,80.4,74.5,71.1,64.1,62.4,59.5,72,66,57,31.01,30.98,0,0,0,0.00
2013-2-12,84.4,76.2,71.2,69.0,66.8,63.6,84,73,54,31.01,31.01,0,0,0,0.00
2013-2-13,81.7,76.3,72.9,72.5,70.4,67.9,90,82,72,31.01,31.01,0,0,0,0.00
2013-2-14,80.6,74.6,69.4,73.5,68.4,62.6,89,81,68,31.01,31.01,0,0,0,0.00
2013-2-15,72.7,70.2,68.9,67.4,65.9,63.7,89,86,81,31.01,31.01,0,0,0,0.00
2013-2-16,77.2,70.0,63.5,65.2,56.2,43.4,88,64,39,31.01,31.01,0,0,0,0.00
2013-2-17,67.1,61.8,55.8,42.7,28.8,-11.6,48,31,4,31.01,31.01,0,0,0,0.00
2013-2-18,68.9,63.1,56.1,53.6,42.6,33.9,62,47,42,31.01,31.01,0,0,0,0.00
2013-2-19,78.3,71.8,67.3,65.8,59.7,51.7,82,66,52,31.01,23.30,0,0,0,0.00
2013-2-20,81.7,73.9,68.9,66.6,64.0,56.7,85,72,44,18.10,17.72,0,0,0,0.00
2013-2-21,83.3,75.9,71.6,66.6,65.1,62.0,81,70,54,17.72,17.72,0,0,0,0.00
2013-2-22,83.5,76.9,73.4,71.0,69.3,66.1,87,78,66,17.72,17.72,0,0,0,0.00
2013-2-23,83.1,77.3,73.8,72.3,70.4,67.9,87,79,66,17.72,17.72,0,0,0,0.00
2013-2-24,85.8,77.7,73.2,74.4,71.8,69.3,91,83,62,17.72,17.72,0,0,0,0.00
2013-2-25,83.5,77.1,72.5,74.4,71.1,67.2,90,82,70,17.72,17.72,0,0,0,0.00
2013-2-26,75.7,75.4,75.0,71.9,71.3,70.7,88,87,85,17.72,17.72,0,0,0,0.00